createdAt,value
2018-08-12T00:00:28.527Z,71.26
2018-08-12T00:02:57.938Z,71.07
2018-08-12T00:05:26.278Z,71.67
2018-08-12T00:07:54.738Z,71.95
2018-08-12T00:10:23.893Z,71.06
2018-08-12T00:12:52.151Z,71.03
2018-08-12T00:15:21.605Z,71.14
2018-08-12T00:17:49.928Z,71.10
2018-08-12T00:20:20.027Z,70.19
2018-08-12T00:22:48.798Z,69.56
2018-08-12T00:25:18.569Z,71.11
2018-08-12T00:27:46.915Z,71.20
2018-08-12T00:30:16.387Z,71.02
2018-08-12T00:32:44.779Z,70.69
2018-08-12T00:35:14.270Z,71.27
2018-08-12T00:37:42.765Z,72.97
2018-08-12T00:40:12.583Z,72.25
2018-08-12T00:42:40.842Z,72.95
2018-08-12T00:45:13.659Z,72.96
2018-08-12T00:47:42.067Z,73.20
2018-08-12T00:50:11.587Z,73.15
2018-08-12T00:52:39.811Z,73.67
2018-08-12T00:55:10.414Z,75.76
2018-08-12T00:57:38.639Z,76.17
2018-08-12T01:00:14.175Z,74.48
2018-08-12T01:02:42.476Z,74.61
2018-08-12T01:05:12.937Z,73.75
2018-08-12T01:07:42.130Z,74.13
2018-08-12T01:10:11.130Z,75.06
2018-08-12T01:12:39.401Z,75.17
2018-08-12T01:15:10.067Z,76.58
2018-08-12T01:17:38.416Z,76.10
2018-08-12T01:20:07.924Z,76.15
2018-08-12T01:22:36.187Z,76.87
2018-08-12T01:25:05.265Z,77.25
2018-08-12T01:27:33.494Z,76.44
2018-08-12T01:30:01.779Z,76.39
2018-08-12T01:32:30.055Z,76.26
2018-08-12T01:34:58.283Z,77.21
2018-08-12T01:37:26.563Z,76.70
2018-08-12T01:39:54.823Z,77.17
2018-08-12T01:42:23.084Z,78.08
2018-08-12T01:44:51.407Z,78.77
2018-08-12T01:47:19.690Z,80.51
2018-08-12T01:49:47.982Z,80.07
2018-08-12T01:52:16.279Z,80.95
2018-08-12T01:54:44.455Z,81.70
2018-08-12T01:57:12.662Z,82.59
2018-08-12T01:59:40.879Z,81.72
2018-08-12T02:02:09.183Z,81.86
2018-08-12T02:04:37.474Z,81.98
2018-08-12T02:07:05.800Z,81.80
2018-08-12T02:09:34.059Z,81.44
2018-08-12T02:12:02.356Z,81.71
2018-08-12T02:14:30.646Z,81.01
2018-08-12T02:16:58.934Z,81.85
2018-08-12T02:19:27.130Z,83.07
2018-08-12T02:21:55.417Z,82.24
2018-08-12T02:24:23.698Z,82.29
2018-08-12T02:26:52.019Z,82.39
2018-08-12T02:29:20.243Z,82.00
2018-08-12T02:31:48.463Z,81.68
2018-08-12T02:34:16.742Z,82.34
2018-08-12T02:36:44.951Z,82.98
2018-08-12T02:39:13.255Z,84.26
2018-08-12T02:41:41.531Z,84.25
2018-08-12T02:44:09.847Z,83.70
2018-08-12T02:46:38.137Z,84.30
2018-08-12T02:49:06.439Z,84.06
2018-08-12T02:51:34.666Z,84.48
2018-08-12T02:54:02.929Z,83.95
2018-08-12T02:56:31.124Z,83.10
2018-08-12T02:58:59.335Z,83.40
2018-08-12T03:01:27.534Z,83.96
2018-08-12T03:03:55.836Z,83.57
2018-08-12T03:06:24.100Z,84.28
2018-08-12T03:08:52.379Z,83.52
2018-08-12T03:11:20.579Z,83.62
2018-08-12T03:13:55.482Z,83.84
2018-08-12T03:16:23.707Z,83.50
2018-08-12T03:18:52.051Z,82.94
2018-08-12T03:21:20.334Z,83.27
2018-08-12T03:23:48.583Z,82.50
2018-08-12T03:26:16.865Z,82.47
2018-08-12T03:28:45.198Z,82.59
2018-08-12T03:31:13.631Z,82.52
2018-08-12T03:33:41.927Z,82.26
2018-08-12T03:36:10.143Z,82.98
2018-08-12T03:38:38.430Z,82.72
2018-08-12T03:41:06.643Z,82.59
2018-08-12T03:43:34.878Z,83.71
2018-08-12T03:46:03.087Z,82.31
2018-08-12T03:48:31.426Z,83.58
2018-08-12T03:50:59.679Z,83.26
2018-08-12T03:53:27.951Z,83.76
2018-08-12T03:55:56.239Z,83.89
2018-08-12T03:58:24.464Z,84.21
2018-08-12T04:00:52.683Z,85.00
2018-08-12T04:03:21.123Z,84.72
2018-08-12T04:05:49.383Z,85.84
2018-08-12T04:08:17.654Z,85.17
2018-08-12T04:10:45.879Z,86.18
2018-08-12T04:13:14.111Z,85.99
2018-08-12T04:15:42.318Z,88.43
2018-08-12T04:18:10.538Z,87.98
2018-08-12T04:20:38.807Z,88.30
2018-08-12T04:23:07.151Z,87.12
2018-08-12T04:25:35.362Z,88.14
2018-08-12T04:28:03.610Z,88.13
2018-08-12T04:30:31.844Z,87.40
2018-08-12T04:33:00.048Z,87.54
2018-08-12T04:35:28.259Z,87.85
2018-08-12T04:37:56.831Z,86.61
2018-08-12T04:40:25.123Z,86.67
2018-08-12T04:42:53.415Z,86.92
2018-08-12T04:45:21.623Z,85.35
2018-08-12T04:47:49.891Z,83.87
2018-08-12T04:50:18.199Z,84.31
2018-08-12T04:52:46.403Z,84.87
2018-08-12T04:55:14.631Z,83.82
2018-08-12T04:57:42.895Z,83.84
2018-08-12T05:00:11.167Z,83.24
2018-08-12T05:02:39.687Z,84.94
2018-08-12T05:05:08.183Z,84.23
2018-08-12T05:07:36.407Z,82.37
2018-08-12T05:10:05.543Z,82.05
2018-08-12T05:12:33.830Z,82.87
2018-08-12T05:15:02.066Z,82.64
2018-08-12T05:17:30.391Z,82.53
2018-08-12T05:20:01.094Z,81.74
2018-08-12T05:22:29.324Z,81.88
2018-08-12T05:24:57.651Z,81.38
2018-08-12T05:27:25.890Z,82.25
2018-08-12T05:29:54.415Z,81.69
2018-08-12T05:32:22.654Z,81.35
2018-08-12T05:34:50.878Z,81.58
2018-08-12T05:37:19.160Z,80.01
2018-08-12T05:39:48.588Z,78.82
2018-08-12T05:42:16.849Z,79.47
2018-08-12T05:44:45.194Z,78.59
2018-08-12T05:47:13.799Z,79.02
2018-08-12T05:49:42.015Z,79.02
2018-08-12T05:52:10.347Z,78.94
2018-08-12T05:54:38.685Z,76.58
2018-08-12T05:57:07.052Z,77.05
2018-08-12T05:59:35.282Z,75.87
2018-08-12T06:02:03.607Z,75.67
2018-08-12T06:04:31.875Z,75.66
2018-08-12T06:07:00.132Z,75.20
2018-08-12T06:09:28.438Z,74.39
2018-08-12T06:11:56.746Z,75.30
2018-08-12T06:14:25.035Z,75.73
2018-08-12T06:16:53.295Z,72.77
2018-08-12T06:19:21.507Z,72.38
2018-08-12T06:21:49.811Z,72.81
2018-08-12T06:24:18.091Z,71.06
2018-08-12T06:26:46.298Z,70.63
2018-08-12T06:29:14.506Z,71.68
2018-08-12T06:31:42.754Z,70.81
2018-08-12T06:34:11.010Z,70.22
2018-08-12T06:36:39.338Z,72.97
2018-08-12T06:39:10.032Z,71.38
2018-08-12T06:41:38.226Z,70.95
2018-08-12T06:44:06.694Z,68.73
2018-08-12T06:46:35.084Z,68.65
2018-08-12T06:49:03.335Z,68.54
2018-08-12T06:51:31.691Z,70.47
2018-08-12T06:54:00.075Z,70.36
2018-08-12T06:56:28.363Z,69.84
2018-08-12T06:58:56.690Z,68.83
2018-08-12T07:01:24.983Z,68.98
2018-08-12T07:03:53.200Z,68.02
2018-08-12T07:06:21.422Z,67.79
2018-08-12T07:08:49.731Z,68.32
2018-08-12T07:11:18.107Z,67.12
2018-08-12T07:13:46.428Z,66.66
2018-08-12T07:16:14.930Z,65.65
2018-08-12T07:18:43.207Z,64.43
2018-08-12T07:21:11.404Z,66.03
2018-08-12T07:23:39.630Z,64.87
2018-08-12T07:26:07.891Z,64.20
2018-08-12T07:28:36.091Z,62.62
2018-08-12T07:31:04.344Z,61.95
2018-08-12T07:33:32.583Z,61.07
2018-08-12T07:36:00.815Z,59.65
2018-08-12T07:38:29.034Z,59.42
2018-08-12T07:40:57.278Z,61.06
2018-08-12T07:43:25.516Z,61.25
2018-08-12T07:45:53.752Z,57.35
2018-08-12T07:48:21.922Z,56.84
2018-08-12T07:50:50.233Z,58.79
2018-08-12T07:53:18.520Z,57.52
2018-08-12T07:55:46.811Z,56.71
2018-08-12T07:58:14.947Z,55.76
2018-08-12T08:00:43.158Z,57.76
2018-08-12T08:03:11.491Z,56.26
2018-08-12T08:05:39.812Z,54.23
2018-08-12T08:08:08.025Z,55.87
2018-08-12T08:10:36.361Z,55.46
2018-08-12T08:13:04.735Z,54.28
2018-08-12T08:15:32.955Z,54.90
2018-08-12T08:18:01.175Z,55.53
2018-08-12T08:20:29.515Z,53.09
2018-08-12T08:22:57.794Z,52.99
2018-08-12T08:25:26.144Z,54.11
2018-08-12T08:27:54.308Z,53.71
2018-08-12T08:30:22.546Z,51.58
2018-08-12T08:32:50.847Z,53.00
2018-08-12T08:35:19.042Z,52.41
2018-08-12T08:37:47.315Z,52.49
2018-08-12T08:40:16.767Z,52.65
2018-08-12T08:42:45.163Z,50.95
2018-08-12T08:45:16.650Z,49.76
2018-08-12T08:47:46.394Z,50.87
2018-08-12T08:50:14.971Z,50.90
2018-08-12T08:52:43.214Z,51.48
2018-08-12T08:55:12.861Z,50.07
2018-08-12T08:57:41.092Z,48.39
2018-08-12T09:00:12.218Z,48.75
2018-08-12T09:02:41.011Z,47.72
2018-08-12T09:05:10.931Z,46.24
2018-08-12T09:07:39.647Z,44.84
2018-08-12T09:10:09.447Z,45.48
2018-08-12T09:12:38.566Z,45.94
2018-08-12T09:15:08.607Z,45.85
2018-08-12T09:17:36.865Z,47.03
2018-08-12T09:20:07.296Z,46.35
2018-08-12T09:22:35.578Z,46.23
2018-08-12T09:25:03.827Z,45.89
2018-08-12T09:27:32.159Z,45.62
2018-08-12T09:30:00.523Z,45.72
2018-08-12T09:32:30.978Z,45.05
2018-08-12T09:34:59.406Z,45.04
2018-08-12T09:37:27.766Z,45.24
2018-08-12T09:39:56.015Z,44.05
2018-08-12T09:42:24.366Z,43.97
2018-08-12T09:44:52.639Z,44.13
2018-08-12T09:47:20.880Z,43.29
2018-08-12T09:49:49.177Z,43.01
2018-08-12T09:52:17.527Z,42.95
2018-08-12T09:54:45.750Z,43.18
2018-08-12T09:57:14.035Z,42.51
2018-08-12T09:59:42.339Z,41.66
2018-08-12T10:02:10.635Z,40.30
2018-08-12T10:04:38.904Z,42.29
2018-08-12T10:07:07.283Z,40.67
2018-08-12T10:09:35.539Z,39.64
2018-08-12T10:12:03.806Z,39.90
2018-08-12T10:14:32.114Z,41.02
2018-08-12T10:17:00.379Z,40.45
2018-08-12T10:19:28.679Z,38.52
2018-08-12T10:21:57.272Z,38.71
2018-08-12T10:24:25.579Z,40.27
2018-08-12T10:26:53.825Z,39.68
2018-08-12T10:29:22.158Z,39.54
2018-08-12T10:31:50.426Z,39.00
2018-08-12T10:34:18.782Z,39.68
2018-08-12T10:36:47.246Z,38.94
2018-08-12T10:39:15.575Z,37.54
2018-08-12T10:41:43.791Z,35.91
2018-08-12T10:44:12.364Z,36.02
2018-08-12T10:46:40.671Z,35.33
2018-08-12T10:49:08.955Z,36.44
2018-08-12T10:51:37.294Z,37.19
2018-08-12T10:54:05.632Z,36.36
2018-08-12T10:56:33.994Z,35.60
2018-08-12T10:59:02.364Z,35.57
2018-08-12T11:01:30.647Z,33.38
2018-08-12T11:06:26.323Z,34.72
2018-08-12T11:08:54.615Z,35.06
2018-08-12T11:11:22.981Z,35.43
2018-08-12T11:13:51.244Z,35.97
2018-08-12T11:16:19.437Z,34.40
2018-08-12T11:18:47.815Z,34.82
2018-08-12T11:21:16.314Z,34.02
2018-08-12T11:23:44.614Z,34.46
2018-08-12T11:26:12.899Z,35.57
2018-08-12T11:28:41.217Z,35.39
2018-08-12T11:31:09.460Z,35.40
2018-08-12T11:33:37.799Z,34.72
2018-08-12T11:36:06.131Z,35.48
2018-08-12T11:38:34.438Z,34.50
2018-08-12T11:41:02.711Z,33.87
2018-08-12T11:43:31.019Z,34.00
2018-08-12T11:45:59.286Z,33.01
2018-08-12T11:48:27.723Z,33.68
2018-08-12T11:50:55.954Z,34.54
2018-08-12T11:53:24.287Z,34.66
2018-08-12T11:55:52.530Z,34.53
2018-08-12T11:58:20.831Z,34.22
2018-08-12T12:00:49.251Z,34.01
2018-08-12T12:03:17.613Z,33.72
2018-08-12T12:05:45.906Z,33.87
2018-08-12T12:08:14.239Z,34.65
2018-08-12T12:10:42.514Z,34.07
2018-08-12T12:13:10.796Z,34.16
2018-08-12T12:15:39.000Z,33.68
2018-08-12T12:18:07.291Z,32.75
2018-08-12T12:20:35.651Z,33.11
2018-08-12T12:23:03.859Z,32.83
2018-08-12T12:25:32.155Z,30.36
2018-08-12T12:28:00.448Z,31.06
2018-08-12T12:30:28.843Z,30.79
2018-08-12T12:32:57.197Z,31.32
2018-08-12T12:35:25.465Z,30.94
2018-08-12T12:37:53.782Z,28.90
2018-08-12T12:40:22.062Z,28.50
2018-08-12T12:42:50.471Z,28.99
2018-08-12T12:45:18.996Z,29.37
2018-08-12T12:47:47.343Z,29.15
2018-08-12T12:50:17.530Z,29.53
2018-08-12T12:52:46.656Z,30.42
2018-08-12T12:55:15.008Z,28.86
2018-08-12T12:57:43.267Z,29.05
2018-08-12T13:00:13.519Z,27.95
2018-08-12T13:02:41.799Z,28.73
2018-08-12T13:05:12.098Z,29.20
2018-08-12T13:07:40.439Z,28.35
2018-08-12T13:10:09.877Z,28.08
2018-08-12T13:12:38.349Z,29.04
2018-08-12T13:15:08.304Z,27.52
2018-08-12T13:17:36.522Z,28.39
2018-08-12T13:20:06.320Z,29.35
2018-08-12T13:22:34.567Z,28.67
2018-08-12T13:25:02.930Z,27.74
2018-08-12T13:27:31.375Z,27.67
2018-08-12T13:29:59.827Z,27.15
2018-08-12T13:32:28.188Z,28.65
2018-08-12T13:34:56.404Z,27.27
2018-08-12T13:37:24.665Z,25.86
2018-08-12T13:39:52.950Z,24.74
2018-08-12T13:42:21.307Z,26.21
2018-08-12T13:44:49.806Z,25.42
2018-08-12T13:47:18.230Z,24.89
2018-08-12T13:49:46.551Z,26.92
2018-08-12T13:52:14.873Z,26.41
2018-08-12T13:54:43.116Z,27.23
2018-08-12T13:57:11.406Z,26.78
2018-08-12T13:59:39.790Z,27.43
2018-08-12T14:02:08.232Z,26.59
2018-08-12T14:04:36.431Z,26.38
2018-08-12T14:07:04.676Z,27.24
2018-08-12T14:09:32.947Z,26.21
2018-08-12T14:12:01.235Z,25.78
2018-08-12T14:14:29.597Z,26.91
2018-08-12T14:16:57.839Z,24.30
2018-08-12T14:19:26.119Z,24.43
2018-08-12T14:21:54.467Z,24.37
2018-08-12T14:24:22.698Z,24.33
2018-08-12T14:26:51.027Z,25.04
2018-08-12T14:29:19.307Z,24.91
2018-08-12T14:31:47.721Z,25.42
2018-08-12T14:34:15.994Z,24.40
2018-08-12T14:36:44.299Z,25.09
2018-08-12T14:39:12.615Z,24.81
2018-08-12T14:41:41.075Z,25.10
2018-08-12T14:44:09.385Z,24.68
2018-08-12T14:46:37.703Z,24.63
2018-08-12T14:49:06.087Z,25.04
2018-08-12T14:51:34.356Z,24.94
2018-08-12T14:54:02.642Z,25.36
2018-08-12T14:56:30.959Z,24.88
2018-08-12T14:58:59.270Z,24.84
2018-08-12T15:01:27.624Z,24.37
2018-08-12T15:03:55.912Z,25.50
2018-08-12T15:06:24.211Z,26.17
2018-08-12T15:08:52.734Z,26.43
2018-08-12T15:11:21.102Z,25.82
2018-08-12T15:13:49.510Z,25.03
2018-08-12T15:16:17.874Z,25.45
2018-08-12T15:18:46.055Z,24.93
2018-08-12T15:21:14.311Z,26.16
2018-08-12T15:23:42.586Z,25.61
2018-08-12T15:26:11.843Z,24.90
2018-08-12T15:28:40.131Z,25.39
2018-08-12T15:31:08.342Z,24.91
2018-08-12T15:33:37.538Z,25.46
2018-08-12T15:36:07.446Z,25.08
2018-08-12T15:38:48.046Z,24.63
2018-08-12T15:41:16.331Z,24.92
2018-08-12T15:43:44.607Z,25.29
2018-08-12T15:46:12.795Z,25.93
2018-08-12T15:48:41.036Z,24.70
2018-08-12T15:51:09.510Z,25.52
2018-08-12T15:53:37.676Z,25.44
2018-08-12T15:56:06.098Z,25.26
2018-08-12T15:58:34.299Z,25.23
2018-08-12T16:01:02.500Z,26.07
2018-08-12T16:03:30.882Z,26.42
2018-08-12T16:05:59.024Z,26.21
2018-08-12T16:08:27.295Z,26.07
2018-08-12T16:10:55.538Z,26.31
2018-08-12T16:13:23.738Z,25.86
2018-08-12T16:15:51.986Z,26.06
2018-08-12T16:18:20.266Z,27.69
2018-08-12T16:20:48.470Z,27.76
2018-08-12T16:23:16.739Z,26.86
2018-08-12T16:25:45.002Z,27.84
2018-08-12T16:28:13.268Z,27.91
2018-08-12T16:30:41.471Z,27.91
2018-08-12T16:33:09.727Z,27.41
2018-08-12T16:35:37.951Z,27.36
2018-08-12T16:38:06.283Z,29.48
2018-08-12T16:40:34.507Z,28.90
2018-08-12T16:43:02.758Z,29.13
2018-08-12T16:45:31.091Z,28.07
2018-08-12T16:47:59.315Z,29.79
2018-08-12T16:50:27.558Z,29.11
2018-08-12T16:52:55.770Z,29.48
2018-08-12T16:55:23.967Z,29.88
2018-08-12T16:57:52.991Z,30.88
2018-08-12T17:00:22.447Z,30.54
2018-08-12T17:02:50.703Z,30.71
2018-08-12T17:05:20.306Z,29.53
2018-08-12T17:07:48.894Z,30.08
2018-08-12T17:10:17.781Z,30.57
2018-08-12T17:12:46.087Z,30.43
2018-08-12T17:15:16.393Z,29.55
2018-08-12T17:17:44.691Z,29.64
2018-08-12T17:20:14.362Z,28.62
2018-08-12T17:22:43.346Z,28.55
2018-08-12T17:25:11.667Z,29.10
2018-08-12T17:27:39.930Z,30.13
2018-08-12T17:30:10.595Z,29.60
2018-08-12T17:32:39.088Z,29.30
2018-08-12T17:35:08.019Z,31.38
2018-08-12T17:37:36.434Z,30.71
2018-08-12T17:40:07.232Z,29.76
2018-08-12T17:42:35.602Z,30.00
2018-08-12T17:45:04.255Z,29.91
2018-08-12T17:47:32.510Z,30.74
2018-08-12T17:50:00.764Z,30.09
2018-08-12T17:52:29.280Z,30.64
2018-08-12T17:54:57.715Z,31.85
2018-08-12T17:57:25.991Z,32.71
2018-08-12T17:59:54.239Z,32.04
2018-08-12T18:02:22.419Z,31.66
2018-08-12T18:04:50.630Z,32.06
2018-08-12T18:07:18.929Z,32.13
2018-08-12T18:09:47.336Z,32.94
2018-08-12T18:12:15.637Z,33.51
2018-08-12T18:14:43.926Z,33.05
2018-08-12T18:17:12.240Z,33.27
2018-08-12T18:19:40.535Z,33.53
2018-08-12T18:22:09.107Z,34.24
2018-08-12T18:24:37.558Z,34.59
2018-08-12T18:27:06.522Z,34.47
2018-08-12T18:29:34.787Z,34.73
2018-08-12T18:32:03.007Z,34.84
2018-08-12T18:34:31.264Z,35.56
2018-08-12T18:36:59.644Z,34.93
2018-08-12T18:39:27.962Z,34.20
2018-08-12T18:41:56.423Z,34.73
2018-08-12T18:44:24.671Z,37.22
2018-08-12T18:46:53.174Z,37.23
2018-08-12T18:49:21.607Z,37.04
2018-08-12T18:51:50.112Z,38.78
2018-08-12T18:54:18.423Z,36.84
2018-08-12T18:56:46.779Z,37.93
2018-08-12T18:59:14.999Z,39.08
2018-08-12T19:04:41.917Z,41.41
2018-08-12T19:07:10.210Z,40.29
2018-08-12T19:09:40.945Z,42.30
2018-08-12T19:12:09.354Z,41.39
2018-08-12T19:14:37.629Z,42.38
2018-08-12T19:17:06.182Z,39.47
2018-08-12T19:19:34.484Z,42.07
2018-08-12T19:22:02.731Z,40.30
2018-08-12T19:24:31.022Z,39.19
2018-08-12T19:26:59.286Z,42.02
2018-08-12T19:29:27.714Z,40.19
2018-08-12T19:31:56.096Z,43.35
2018-08-12T19:34:24.589Z,42.90
2018-08-12T19:36:52.898Z,43.56
2018-08-12T19:39:21.275Z,43.14
2018-08-12T19:41:52.574Z,44.47
2018-08-12T19:44:20.959Z,44.06
2018-08-12T19:46:49.846Z,44.42
2018-08-12T19:49:18.063Z,46.09
2018-08-12T19:51:46.701Z,45.27
2018-08-12T19:54:15.255Z,45.28
2018-08-12T19:56:43.466Z,45.48
2018-08-12T19:59:11.722Z,46.62
2018-08-12T20:01:39.994Z,48.43
2018-08-12T20:04:08.207Z,48.21
2018-08-12T20:06:36.414Z,49.15
2018-08-12T20:09:07.922Z,49.54
2018-08-12T20:11:36.219Z,48.20
2018-08-12T20:14:04.577Z,50.24
2018-08-12T20:16:32.962Z,47.95
2018-08-12T20:19:01.303Z,48.09
2018-08-12T20:21:29.543Z,48.11
2018-08-12T20:23:57.830Z,49.59
2018-08-12T20:26:26.175Z,50.60
2018-08-12T20:28:54.472Z,50.19
2018-08-12T20:31:22.786Z,49.56
2018-08-12T20:33:51.112Z,51.08
2018-08-12T20:36:19.383Z,50.49
2018-08-12T20:38:47.689Z,50.59
2018-08-12T20:41:15.939Z,51.22
2018-08-12T20:43:44.250Z,51.39
2018-08-12T20:46:12.751Z,49.75
2018-08-12T20:48:41.012Z,49.79
2018-08-12T20:51:09.892Z,50.23
2018-08-12T20:53:38.155Z,50.02
2018-08-12T20:56:06.455Z,51.90
2018-08-12T20:58:34.906Z,49.60
2018-08-12T21:01:03.455Z,50.35
2018-08-12T21:03:31.859Z,50.77
2018-08-12T21:06:00.096Z,51.32
2018-08-12T21:08:28.375Z,51.71
2018-08-12T21:10:56.718Z,51.52
2018-08-12T21:13:24.963Z,53.20
2018-08-12T21:15:53.247Z,52.22
2018-08-12T21:18:21.598Z,53.00
2018-08-12T21:20:49.934Z,53.34
2018-08-12T21:23:18.248Z,54.38
2018-08-12T21:25:46.455Z,53.45
2018-08-12T21:28:14.714Z,54.32
2018-08-12T21:30:43.022Z,55.54
2018-08-12T21:33:11.332Z,56.98
2018-08-12T21:35:39.663Z,55.97
2018-08-12T21:38:07.971Z,56.14
2018-08-12T21:40:36.242Z,54.79
2018-08-12T21:43:04.552Z,55.17
2018-08-12T21:45:32.883Z,54.32
2018-08-12T21:48:01.219Z,55.96
2018-08-12T21:50:29.410Z,55.83
2018-08-12T21:52:57.706Z,56.29
2018-08-12T21:55:26.083Z,57.42
2018-08-12T21:57:54.449Z,56.93
2018-08-12T22:00:22.698Z,58.25
2018-08-12T22:02:50.983Z,57.76
2018-08-12T22:05:19.287Z,57.70
2018-08-12T22:07:47.543Z,58.85
2018-08-12T22:10:15.907Z,56.88
2018-08-12T22:12:44.235Z,57.34
2018-08-12T22:15:12.553Z,57.41
2018-08-12T22:17:40.936Z,56.91
2018-08-12T22:20:09.243Z,58.42
2018-08-12T22:22:37.522Z,58.06
2018-08-12T22:25:05.826Z,58.38
2018-08-12T22:27:34.187Z,58.83
2018-08-12T22:30:02.509Z,60.04
2018-08-12T22:32:30.895Z,58.70
2018-08-12T22:34:59.179Z,59.41
2018-08-12T22:37:27.441Z,58.78
2018-08-12T22:39:55.723Z,60.26
2018-08-12T22:42:23.978Z,59.39
2018-08-12T22:44:52.298Z,60.16
2018-08-12T22:47:20.578Z,59.87
2018-08-12T22:49:48.931Z,59.92
2018-08-12T22:52:17.235Z,60.28
2018-08-12T22:54:45.546Z,60.31
2018-08-12T22:57:13.833Z,59.87
2018-08-12T22:59:42.119Z,59.40
2018-08-12T23:02:10.474Z,59.27
2018-08-12T23:04:38.782Z,59.62
2018-08-12T23:07:07.247Z,61.77
2018-08-12T23:09:35.491Z,61.05
2018-08-12T23:12:03.778Z,60.15
2018-08-12T23:14:31.989Z,59.80
2018-08-12T23:17:01.963Z,60.81
2018-08-12T23:19:30.677Z,62.35
2018-08-12T23:21:59.065Z,61.61
2018-08-12T23:24:27.314Z,60.23
2018-08-12T23:26:55.590Z,61.14
2018-08-12T23:29:23.858Z,61.78
2018-08-12T23:31:52.126Z,61.51
2018-08-12T23:34:20.550Z,61.36
2018-08-12T23:36:48.824Z,61.39
2018-08-12T23:39:17.199Z,60.52
2018-08-12T23:41:45.494Z,62.00
2018-08-12T23:44:13.788Z,61.00
2018-08-12T23:46:42.051Z,60.55
2018-08-12T23:49:10.375Z,60.08
2018-08-12T23:51:38.736Z,60.37
2018-08-12T23:54:09.949Z,61.04
2018-08-12T23:56:38.203Z,62.57
2018-08-12T23:59:06.415Z,61.76
